createdAt,value
2023-01-29T00:02:35.297Z,89.5
2023-01-29T00:07:41.445Z,89
2023-01-29T00:12:47.657Z,89.5
2023-01-29T00:17:53.574Z,89.5
2023-01-29T00:22:59.653Z,90.5
2023-01-29T00:28:05.729Z,91
2023-01-29T00:33:11.935Z,91
2023-01-29T00:38:17.928Z,91.5
2023-01-29T00:43:24.011Z,92
2023-01-29T00:48:30.114Z,91.5
2023-01-29T00:53:36.215Z,91.5
2023-01-29T00:58:42.310Z,92
2023-01-29T01:03:48.420Z,92
2023-01-29T01:08:53.523Z,92
2023-01-29T01:13:59.640Z,92
2023-01-29T01:19:05.727Z,92
2023-01-29T01:24:11.817Z,92
2023-01-29T01:29:17.958Z,92
2023-01-29T01:34:24.011Z,92
2023-01-29T01:39:30.122Z,92.5
2023-01-29T01:44:36.223Z,92.5
2023-01-29T01:49:42.325Z,93.5
2023-01-29T01:54:48.451Z,93.5
2023-01-29T01:59:54.501Z,94
2023-01-29T02:05:00.610Z,94.5
2023-01-29T02:10:06.695Z,95.5
2023-01-29T02:15:11.810Z,95
2023-01-29T02:20:17.939Z,94.5
2023-01-29T02:25:24.011Z,94
2023-01-29T02:30:30.171Z,93.5
2023-01-29T02:35:36.208Z,94
2023-01-29T02:40:42.335Z,94.5
2023-01-29T02:45:48.407Z,95
2023-01-29T02:50:54.500Z,95.5
2023-01-29T02:56:00.597Z,96
2023-01-29T03:01:06.688Z,95.5
2023-01-29T03:06:12.782Z,95
2023-01-29T03:11:18.899Z,95
2023-01-29T03:16:24.998Z,95
2023-01-29T03:21:30.181Z,94.5
2023-01-29T03:26:36.191Z,94.5
2023-01-29T03:31:42.292Z,95
2023-01-29T03:36:48.394Z,95
2023-01-29T03:41:54.488Z,95
2023-01-29T03:47:00.581Z,95.5
2023-01-29T03:52:06.683Z,95.5
2023-01-29T03:57:12.769Z,95.5
2023-01-29T04:02:18.956Z,95.5
2023-01-29T04:07:24.961Z,95.5
2023-01-29T04:12:31.089Z,96.5
2023-01-29T04:17:37.172Z,96.5
2023-01-29T04:22:43.275Z,96.5
2023-01-29T04:27:48.384Z,97
2023-01-29T04:32:54.484Z,96.5
2023-01-29T04:38:00.583Z,96
2023-01-29T04:43:06.718Z,95
2023-01-29T04:48:12.795Z,95
2023-01-29T04:53:18.896Z,94.5
2023-01-29T04:58:25.031Z,94.5
2023-01-29T05:03:31.188Z,94.5
2023-01-29T05:08:37.152Z,94.5
2023-01-29T05:13:43.275Z,94
2023-01-29T05:18:49.423Z,93.5
2023-01-29T05:23:55.453Z,93.5
2023-01-29T05:29:01.548Z,93
2023-01-29T05:34:06.679Z,92.5
2023-01-29T05:39:12.768Z,92.5
2023-01-29T05:44:18.917Z,93
2023-01-29T05:49:24.988Z,92.5
2023-01-29T05:54:31.161Z,93
2023-01-29T05:59:37.216Z,93
2023-01-29T06:04:43.314Z,93
2023-01-29T06:09:49.420Z,92.5
2023-01-29T06:14:55.475Z,92.5
2023-01-29T06:20:01.632Z,92.5
2023-01-29T06:25:07.677Z,93
2023-01-29T06:30:13.767Z,92.5
2023-01-29T06:35:19.935Z,92
2023-01-29T06:40:24.983Z,92.5
2023-01-29T06:45:31.080Z,92.5
2023-01-29T06:50:37.167Z,93
2023-01-29T06:55:43.252Z,93.5
2023-01-29T07:00:49.466Z,92.5
2023-01-29T07:05:55.476Z,93
2023-01-29T07:11:01.613Z,93
2023-01-29T07:16:07.676Z,92.5
2023-01-29T07:21:13.761Z,93
2023-01-29T07:26:19.971Z,92.5
2023-01-29T07:31:25.991Z,92
2023-01-29T07:36:32.143Z,92
2023-01-29T07:41:38.171Z,92.5
2023-01-29T07:46:43.267Z,92
2023-01-29T07:51:49.425Z,92.5
2023-01-29T07:56:55.557Z,93
2023-01-29T08:02:01.667Z,92
2023-01-29T08:12:13.923Z,92
2023-01-29T08:17:20.026Z,91.5
2023-01-29T08:22:26.006Z,91
2023-01-29T08:27:32.240Z,90.5
2023-01-29T08:32:38.375Z,91.5
2023-01-29T08:37:44.451Z,91.5
2023-01-29T08:42:50.578Z,91
2023-01-29T08:47:56.616Z,91
2023-01-29T08:53:01.793Z,91
2023-01-29T08:58:07.848Z,90.5
2023-01-29T09:03:13.799Z,90.5
2023-01-29T09:08:20.076Z,91
2023-01-29T09:13:26.116Z,91.5
2023-01-29T09:18:32.275Z,91
2023-01-29T09:23:38.293Z,91
2023-01-29T09:28:44.397Z,89.5
2023-01-29T09:33:50.550Z,89
2023-01-29T09:38:56.661Z,88.5
2023-01-29T09:49:08.914Z,89
2023-01-29T09:54:15.003Z,89
2023-01-29T09:59:19.910Z,89
2023-01-29T10:04:26.152Z,89
2023-01-29T10:09:32.243Z,89
2023-01-29T10:14:38.319Z,88
2023-01-29T10:19:44.293Z,88
2023-01-29T10:24:50.594Z,88.5
2023-01-29T10:29:56.609Z,88.5
2023-01-29T10:35:02.700Z,87
2023-01-29T10:40:08.777Z,87
2023-01-29T10:45:14.795Z,87.5
2023-01-29T10:50:20.996Z,86
2023-01-29T10:55:27.047Z,86.5
2023-01-29T11:00:33.179Z,87
2023-01-29T11:05:38.192Z,87
2023-01-29T11:10:44.441Z,86.5
2023-01-29T11:15:50.478Z,85
2023-01-29T11:20:56.656Z,85.5
2023-01-29T11:26:02.729Z,85
2023-01-29T11:31:08.820Z,85
2023-01-29T11:36:14.826Z,85
2023-01-29T11:41:20.922Z,85.5
2023-01-29T11:46:27.164Z,86
2023-01-29T11:51:33.248Z,85
2023-01-29T11:56:39.284Z,86
2023-01-29T12:01:45.441Z,86
2023-01-29T12:06:51.458Z,85.5
2023-01-29T12:11:56.634Z,85.5
2023-01-29T12:17:02.599Z,84.5
2023-01-29T12:22:08.756Z,84
2023-01-29T12:27:14.819Z,83.5
2023-01-29T12:32:21.033Z,83.5
2023-01-29T12:37:26.988Z,83.5
2023-01-29T12:42:33.201Z,82.5
2023-01-29T12:47:39.156Z,82
2023-01-29T12:52:45.380Z,82
2023-01-29T12:57:51.420Z,83
2023-01-29T13:02:57.445Z,83
2023-01-29T13:08:03.550Z,84
2023-01-29T13:13:09.644Z,83.5
2023-01-29T13:18:14.754Z,84
2023-01-29T13:23:20.939Z,84
2023-01-29T13:28:27.184Z,84
2023-01-29T13:33:33.207Z,84
2023-01-29T13:38:39.364Z,84.5
2023-01-29T13:43:45.236Z,84
2023-01-29T13:48:51.429Z,84.5
2023-01-29T13:53:57.550Z,85
2023-01-29T13:59:03.684Z,85.5
2023-01-29T14:04:09.730Z,84.5
2023-01-29T14:09:15.888Z,84.5
2023-01-29T14:14:21.890Z,85
2023-01-29T14:19:28.022Z,85.5
2023-01-29T14:24:33.281Z,87
2023-01-29T14:29:39.297Z,87
2023-01-29T14:34:45.352Z,87.5
2023-01-29T14:39:51.499Z,87.5
2023-01-29T14:44:57.619Z,86.5
2023-01-29T14:50:03.530Z,87.5
2023-01-29T14:55:08.795Z,87
2023-01-29T15:00:14.938Z,87
2023-01-29T15:05:21.020Z,87
2023-01-29T15:10:27.193Z,87
2023-01-29T15:15:33.175Z,87
2023-01-29T15:20:39.292Z,87.5
2023-01-29T15:25:45.247Z,87.5
2023-01-29T15:30:51.459Z,87.5
2023-01-29T15:35:57.594Z,88
2023-01-29T15:41:03.726Z,88
2023-01-29T15:46:09.823Z,87.5
2023-01-29T15:51:15.866Z,88
2023-01-29T15:56:21.836Z,88.5
2023-01-29T16:01:26.944Z,88
2023-01-29T16:06:33.040Z,88.5
2023-01-29T16:11:39.280Z,89
2023-01-29T16:16:45.383Z,88.5
2023-01-29T16:21:51.491Z,88
2023-01-29T16:26:57.629Z,88
2023-01-29T16:32:03.703Z,88
2023-01-29T16:37:09.770Z,88
2023-01-29T16:42:15.867Z,88.5
2023-01-29T16:47:21.834Z,88.5
2023-01-29T16:52:28.024Z,88.5
2023-01-29T16:57:34.033Z,88.5
2023-01-29T17:02:40.257Z,88.5
2023-01-29T17:07:45.264Z,88.5
2023-01-29T17:12:51.438Z,88.5
2023-01-29T17:17:57.530Z,89
2023-01-29T17:23:03.723Z,88.5
2023-01-29T17:28:09.632Z,88.5
2023-01-29T17:33:15.853Z,89
2023-01-29T17:38:21.937Z,88.5
2023-01-29T17:43:27.941Z,87
2023-01-29T17:48:34.062Z,87.5
2023-01-29T17:53:40.127Z,87
2023-01-29T17:58:46.241Z,87.5
2023-01-29T18:03:52.323Z,87
2023-01-29T18:08:58.563Z,86
2023-01-29T18:14:03.573Z,86
2023-01-29T18:19:09.739Z,86.5
2023-01-29T18:24:15.928Z,86
2023-01-29T18:29:22.039Z,85
2023-01-29T18:34:28.052Z,85
2023-01-29T18:39:34.112Z,84.5
2023-01-29T18:44:40.300Z,84.5
2023-01-29T18:49:46.271Z,84.5
2023-01-29T18:54:52.381Z,85
2023-01-29T18:59:58.430Z,84.5
2023-01-29T19:05:04.604Z,85.5
2023-01-29T19:10:10.654Z,85.5
2023-01-29T19:15:16.893Z,85.5
2023-01-29T19:20:21.881Z,84.5
2023-01-29T19:25:27.901Z,84.5
2023-01-29T19:30:34.041Z,84
2023-01-29T19:35:40.236Z,84
2023-01-29T19:40:46.199Z,84
2023-01-29T19:45:52.475Z,84
2023-01-29T19:50:58.399Z,83.5
2023-01-29T19:56:04.638Z,84
2023-01-29T20:01:10.643Z,83.5
2023-01-29T20:06:16.788Z,83.5
2023-01-29T20:11:22.941Z,83.5
2023-01-29T20:16:28.964Z,83
2023-01-29T20:21:35.069Z,83
2023-01-29T20:26:40.183Z,83
2023-01-29T20:31:46.227Z,82.5
2023-01-29T20:36:52.277Z,83
2023-01-29T20:41:58.379Z,83.5
2023-01-29T20:47:04.535Z,83
2023-01-29T20:52:10.562Z,83
2023-01-29T20:57:16.712Z,83
2023-01-29T21:02:22.912Z,83
2023-01-29T21:07:28.878Z,83.5
2023-01-29T21:12:35.036Z,83
2023-01-29T21:17:41.049Z,83.5
2023-01-29T21:22:47.157Z,84
2023-01-29T21:27:53.246Z,85
2023-01-29T21:32:58.370Z,85
2023-01-29T21:38:04.447Z,85.5
2023-01-29T21:43:10.560Z,85.5
2023-01-29T21:48:16.733Z,85
2023-01-29T21:53:22.810Z,84.5
2023-01-29T21:58:28.896Z,84.5
2023-01-29T22:03:34.961Z,83.5
2023-01-29T22:08:41.090Z,84
2023-01-29T22:13:47.176Z,83.5
2023-01-29T22:18:53.344Z,83.5
2023-01-29T22:23:59.382Z,83
2023-01-29T22:29:05.587Z,83
2023-01-29T22:34:11.580Z,83
2023-01-29T22:39:16.687Z,83
2023-01-29T22:44:22.797Z,83
2023-01-29T22:49:28.894Z,83
2023-01-29T22:54:35.125Z,83.5
2023-01-29T22:59:41.126Z,82.5
2023-01-29T23:04:47.203Z,82.5
2023-01-29T23:09:53.275Z,83
2023-01-29T23:14:59.454Z,83.5
2023-01-29T23:20:05.586Z,83.5
2023-01-29T23:25:11.579Z,83.5
2023-01-29T23:30:17.683Z,84
2023-01-29T23:35:23.818Z,84
2023-01-29T23:40:29.885Z,85
2023-01-29T23:45:35.012Z,85.5
2023-01-29T23:50:41.095Z,85.5
2023-01-29T23:55:47.194Z,85.5
